<?xml version="1.0" encoding="UTF-8" standalone="no" ?>
<gpx xmlns="http://www.topografix.com/GPX/1/1" xmlns:xsi="http://www.w3.org/2001/XMLSchema-instance" xsi:schemaLocation="http://www.topografix.com/GPX/1/1 http://www.topografix.com/GPX/1/1/gpx.xsd" version="1.1" creator="VisuGPX - https://www.visugpx.com">
  <metadata>
    <name>Barèges solo Lac de Madamette</name>
  </metadata>
  <wpt lat="42.88157" lon="0.13669">
    <ele>1990.5</ele>
    <name><![CDATA[Raccourci]]></name>
    <desc><![CDATA[Possibilité de couper directement vers le Lac d'Aygues Cluses]]></desc>
    <type><![CDATA[refuge]]></type>
  </wpt>
  <wpt lat="42.87524" lon="0.15217">
    <ele>2153</ele>
    <name><![CDATA[Lac de Coueyla Gran]]></name>
    <desc><![CDATA[Possibilité de sauter ce point]]></desc>
    <type><![CDATA[refuge]]></type>
  </wpt>
  <wpt lat="42.86496" lon="0.13375">
    <ele>2451.9</ele>
    <name><![CDATA[Col de Tracens]]></name>
    <type><![CDATA[col]]></type>
  </wpt>
  <wpt lat="42.87719" lon="0.11269">
    <ele>2041.1</ele>
    <name><![CDATA[Lac dets Coubous]]></name>
    <type><![CDATA[refuge]]></type>
  </wpt>
  <wpt lat="42.8679" lon="0.14334">
    <ele>2304.8</ele>
    <name><![CDATA[Lac d'Aygues Cluses]]></name>
    <type><![CDATA[water]]></type>
  </wpt>
  <trk>
    <name><![CDATA[Barèges solo Lac de Madamette]]></name>
    <extensions>
      <line xmlns="http://www.topografix.com/GPX/gpx_style/0/2">
        <color>0000FF</color>
        <width>4</width>
      </line>
    </extensions>
    <trkseg>
      <trkpt lat="42.9034" lon="0.10159">
        <ele>1458.1</ele>
        <time>2021-03-25T16:09:04Z</time>
      </trkpt>
      <trkpt lat="42.90292" lon="0.102">
        <ele>1465.9</ele>
        <time>2021-03-25T16:05:41Z</time>
      </trkpt>
      <trkpt lat="42.90136" lon="0.10381">
        <ele>1480.2</ele>
        <time>2021-03-25T16:02:39Z</time>
      </trkpt>
      <trkpt lat="42.89936" lon="0.10441">
        <ele>1499</ele>
        <time>2021-03-25T15:59:42Z</time>
      </trkpt>
      <trkpt lat="42.89741" lon="0.10502">
        <ele>1523.5</ele>
        <time>2021-03-25T15:56:45Z</time>
      </trkpt>
      <trkpt lat="42.89537" lon="0.10509">
        <ele>1547</ele>
        <time>2021-03-25T15:53:43Z</time>
      </trkpt>
      <trkpt lat="42.89443" lon="0.10634">
        <ele>1562.5</ele>
        <time>2021-03-25T15:50:36Z</time>
      </trkpt>
      <trkpt lat="42.89319" lon="0.1067">
        <ele>1598.7</ele>
        <time>2021-03-25T15:47:24Z</time>
      </trkpt>
      <trkpt lat="42.89144" lon="0.10709">
        <ele>1636</ele>
        <time>2021-03-25T15:44:15Z</time>
      </trkpt>
      <trkpt lat="42.88939" lon="0.10759">
        <ele>1663.2</ele>
        <time>2021-03-25T15:41:16Z</time>
      </trkpt>
      <trkpt lat="42.88733" lon="0.10841">
        <ele>1684.3</ele>
        <time>2021-03-25T15:38:18Z</time>
      </trkpt>
      <trkpt lat="42.88601" lon="0.10917">
        <ele>1714.8</ele>
        <time>2021-03-25T15:35:08Z</time>
      </trkpt>
      <trkpt lat="42.88416" lon="0.11095">
        <ele>1738.5</ele>
        <time>2021-03-25T15:32:02Z</time>
      </trkpt>
      <trkpt lat="42.88309" lon="0.11191">
        <ele>1744.9</ele>
        <time>2021-03-25T15:28:35Z</time>
      </trkpt>
      <trkpt lat="42.88308" lon="0.11188">
        <ele>1747.3</ele>
        <time>2021-03-25T15:24:46Z</time>
      </trkpt>
      <trkpt lat="42.88245" lon="0.11511">
        <ele>1788.6</ele>
        <time>2021-03-25T15:21:21Z</time>
      </trkpt>
      <trkpt lat="42.88216" lon="0.1189">
        <ele>1846.9</ele>
        <time>2021-03-25T15:17:54Z</time>
      </trkpt>
      <trkpt lat="42.88207" lon="0.12141">
        <ele>1886.5</ele>
        <time>2021-03-25T15:12:37Z</time>
      </trkpt>
      <trkpt lat="42.88178" lon="0.12212">
        <ele>1892.9</ele>
        <time>2021-03-25T15:08:58Z</time>
      </trkpt>
      <trkpt lat="42.8814" lon="0.1244">
        <ele>1899.4</ele>
        <time>2021-03-25T15:05:22Z</time>
      </trkpt>
      <trkpt lat="42.88156" lon="0.12599">
        <ele>1899.5</ele>
        <time>2021-03-25T15:01:50Z</time>
      </trkpt>
      <trkpt lat="42.88183" lon="0.12754">
        <ele>1918.9</ele>
        <time>2021-03-25T14:58:20Z</time>
      </trkpt>
      <trkpt lat="42.88149" lon="0.13081">
        <ele>1936.9</ele>
        <time>2021-03-25T14:54:54Z</time>
      </trkpt>
      <trkpt lat="42.88108" lon="0.13529">
        <ele>1958.1</ele>
        <time>2021-03-25T14:51:28Z</time>
      </trkpt>
      <trkpt lat="42.8808" lon="0.13799">
        <ele>2009.5</ele>
      </trkpt>
      <trkpt lat="42.87995" lon="0.13857">
        <ele>2031.7</ele>
      </trkpt>
      <trkpt lat="42.87925" lon="0.13933">
        <ele>2024.1</ele>
        <time>2021-03-25T14:48:00Z</time>
      </trkpt>
      <trkpt lat="42.8771" lon="0.14601">
        <ele>2107.6</ele>
        <time>2021-03-25T14:43:57Z</time>
      </trkpt>
      <trkpt lat="42.87486" lon="0.15204">
        <ele>2155.1</ele>
        <time>2021-03-25T13:07:54Z</time>
      </trkpt>
      <trkpt lat="42.87297" lon="0.15224">
        <ele>2171.4</ele>
        <time>2021-03-25T13:04:45Z</time>
      </trkpt>
      <trkpt lat="42.87129" lon="0.151">
        <ele>2186.3</ele>
        <time>2021-03-25T12:17:35Z</time>
      </trkpt>
      <trkpt lat="42.86938" lon="0.14743">
        <ele>2255.6</ele>
        <time>2021-03-25T12:10:19Z</time>
      </trkpt>
      <trkpt lat="42.86851" lon="0.14479">
        <ele>2304</ele>
        <time>2021-03-25T12:06:41Z</time>
      </trkpt>
      <trkpt lat="42.86753" lon="0.14298">
        <ele>2309.9</ele>
        <time>2021-03-25T12:03:17Z</time>
      </trkpt>
      <trkpt lat="42.8666" lon="0.1361">
        <ele>2387.3</ele>
        <time>2021-03-25T11:59:44Z</time>
      </trkpt>
      <trkpt lat="42.8651" lon="0.1337">
        <ele>2458.8</ele>
        <time>2021-03-25T11:56:11Z</time>
      </trkpt>
      <trkpt lat="42.86496" lon="0.13075">
        <ele>2383</ele>
        <time>2021-03-25T11:52:45Z</time>
      </trkpt>
      <trkpt lat="42.86465" lon="0.12639">
        <ele>2286.6</ele>
        <time>2021-03-25T11:49:06Z</time>
      </trkpt>
      <trkpt lat="42.86477" lon="0.12387">
        <ele>2255.9</ele>
      </trkpt>
      <trkpt lat="42.86573" lon="0.12059">
        <ele>2230.9</ele>
        <time>2021-03-25T11:45:02Z</time>
      </trkpt>
      <trkpt lat="42.86604" lon="0.11792">
        <ele>2224.8</ele>
        <time>2021-03-25T11:41:13Z</time>
      </trkpt>
      <trkpt lat="42.86813" lon="0.11532">
        <ele>2158.4</ele>
        <time>2021-03-25T11:37:38Z</time>
      </trkpt>
      <trkpt lat="42.86998" lon="0.1141">
        <ele>2130.4</ele>
        <time>2021-03-25T11:33:56Z</time>
      </trkpt>
      <trkpt lat="42.871" lon="0.1139">
        <ele>2115.3</ele>
        <time>2021-03-25T11:30:27Z</time>
      </trkpt>
      <trkpt lat="42.8743" lon="0.11484">
        <ele>2065.2</ele>
        <time>2021-03-25T11:26:47Z</time>
      </trkpt>
      <trkpt lat="42.87525" lon="0.11371">
        <ele>2045.6</ele>
        <time>2021-03-25T11:23:12Z</time>
      </trkpt>
      <trkpt lat="42.87629" lon="0.11215">
        <ele>2050.5</ele>
        <time>2021-03-25T11:19:35Z</time>
      </trkpt>
      <trkpt lat="42.87685" lon="0.11243">
        <ele>2038.6</ele>
      </trkpt>
      <trkpt lat="42.87718" lon="0.11147">
        <ele>2043.5</ele>
      </trkpt>
      <trkpt lat="42.8778" lon="0.11028">
        <ele>2021.9</ele>
      </trkpt>
      <trkpt lat="42.87892" lon="0.11051">
        <ele>1945.9</ele>
      </trkpt>
      <trkpt lat="42.87944" lon="0.11116">
        <ele>1904.5</ele>
        <time>2021-03-25T11:16:05Z</time>
      </trkpt>
      <trkpt lat="42.87965" lon="0.1115">
        <ele>1894.1</ele>
      </trkpt>
      <trkpt lat="42.88179" lon="0.11102">
        <ele>1797.6</ele>
      </trkpt>
      <trkpt lat="42.88279" lon="0.11174">
        <ele>1751.4</ele>
        <time>2021-03-25T11:12:39Z</time>
      </trkpt>
      <trkpt lat="42.88424" lon="0.11113">
        <ele>1739.2</ele>
        <time>2021-03-25T11:09:19Z</time>
      </trkpt>
      <trkpt lat="42.88546" lon="0.10956">
        <ele>1727.8</ele>
        <time>2021-03-25T11:05:58Z</time>
      </trkpt>
      <trkpt lat="42.88628" lon="0.10865">
        <ele>1707.4</ele>
        <time>2021-03-25T11:02:18Z</time>
      </trkpt>
      <trkpt lat="42.88742" lon="0.10831">
        <ele>1683.6</ele>
        <time>2021-03-25T10:58:50Z</time>
      </trkpt>
      <trkpt lat="42.88917" lon="0.10768">
        <ele>1664.8</ele>
        <time>2021-03-25T10:55:25Z</time>
      </trkpt>
      <trkpt lat="42.89102" lon="0.10732">
        <ele>1644.4</ele>
        <time>2021-03-25T10:52:09Z</time>
      </trkpt>
      <trkpt lat="42.89295" lon="0.1074">
        <ele>1622</ele>
        <time>2021-03-25T10:48:53Z</time>
      </trkpt>
      <trkpt lat="42.89411" lon="0.10744">
        <ele>1595.1</ele>
        <time>2021-03-25T10:44:39Z</time>
      </trkpt>
      <trkpt lat="42.89482" lon="0.10676">
        <ele>1560.9</ele>
        <time>2021-03-25T10:41:01Z</time>
      </trkpt>
      <trkpt lat="42.89492" lon="0.10549">
        <ele>1548.5</ele>
        <time>2021-03-25T10:37:37Z</time>
      </trkpt>
      <trkpt lat="42.89646" lon="0.10489">
        <ele>1536.8</ele>
        <time>2021-03-25T10:34:16Z</time>
      </trkpt>
      <trkpt lat="42.8966" lon="0.10511">
        <ele>1529.7</ele>
        <time>2021-03-25T10:30:31Z</time>
      </trkpt>
      <trkpt lat="42.8978" lon="0.10504">
        <ele>1517.6</ele>
        <time>2021-03-25T10:26:55Z</time>
      </trkpt>
      <trkpt lat="42.89921" lon="0.10432">
        <ele>1499.5</ele>
        <time>2021-03-25T10:23:27Z</time>
      </trkpt>
      <trkpt lat="42.90098" lon="0.10401">
        <ele>1484</ele>
        <time>2021-03-25T10:20:15Z</time>
      </trkpt>
      <trkpt lat="42.901" lon="0.104">
        <ele>1483.6</ele>
        <time>2021-03-25T10:20:06Z</time>
      </trkpt>
      <trkpt lat="42.901" lon="0.104">
        <ele>1483.6</ele>
        <time>2021-03-25T10:20:06Z</time>
      </trkpt>
    </trkseg>
  </trk>
</gpx>